createdAt,value
2023-05-10T00:01:43.358Z,14.45
2023-05-10T00:04:45.426Z,14.34
2023-05-10T00:07:46.699Z,14.39
2023-05-10T00:10:48.342Z,14.36
2023-05-10T00:13:49.794Z,14.38
2023-05-10T00:16:51.115Z,14.45
2023-05-10T00:19:53.207Z,14.34
2023-05-10T00:22:54.566Z,14.38
2023-05-10T00:25:56.049Z,14.31
2023-05-10T00:28:58.722Z,14.29
2023-05-10T00:32:00.242Z,14.10
2023-05-10T00:35:02.398Z,14.16
2023-05-10T00:38:03.700Z,14.01
2023-05-10T00:41:05.145Z,14.06
2023-05-10T00:44:06.639Z,14.16
2023-05-10T00:47:08.424Z,14.17
2023-05-10T00:50:10.979Z,14.27
2023-05-10T00:53:15.755Z,13.85
2023-05-10T00:56:17.400Z,13.88
2023-05-10T00:59:19.888Z,13.75
2023-05-10T01:02:21.231Z,13.72
2023-05-10T01:05:23.466Z,13.84
2023-05-10T01:08:25.501Z,13.84
2023-05-10T01:11:27.094Z,13.77
2023-05-10T01:14:29.291Z,13.71
2023-05-10T01:17:31.743Z,13.60
2023-05-10T01:20:43.898Z,13.80
2023-05-10T01:24:20.324Z,13.60
2023-05-10T01:27:48.488Z,13.56
2023-05-10T01:31:19.091Z,13.40
2023-05-10T01:34:25.982Z,13.38
2023-05-10T01:37:36.962Z,13.35
2023-05-10T01:40:43.196Z,13.33
2023-05-10T01:43:54.187Z,13.29
2023-05-10T01:47:02.357Z,13.31
2023-05-10T01:50:07.525Z,13.14
2023-05-10T01:53:12.261Z,13.20
2023-05-10T01:56:14.575Z,13.14
2023-05-10T01:59:18.955Z,13.18
2023-05-10T02:02:21.797Z,13.05
2023-05-10T02:05:24.915Z,12.95
2023-05-10T02:08:27.698Z,12.98
2023-05-10T02:11:30.318Z,13.00
2023-05-10T02:14:35.074Z,12.89
2023-05-10T02:17:38.580Z,12.76
2023-05-10T02:20:41.126Z,12.77
2023-05-10T02:23:44.048Z,12.81
2023-05-10T02:26:48.053Z,12.76
2023-05-10T02:29:51.867Z,12.71
2023-05-10T02:32:53.999Z,12.69
2023-05-10T02:35:57.394Z,12.60
2023-05-10T02:39:02.237Z,12.59
2023-05-10T02:42:04.479Z,12.50
2023-05-10T02:45:11.222Z,12.62
2023-05-10T02:48:12.612Z,12.61
2023-05-10T02:51:18.251Z,12.57
2023-05-10T02:54:21.365Z,12.46
2023-05-10T02:57:28.131Z,12.50
2023-05-10T03:00:29.977Z,12.47
2023-05-10T03:03:31.298Z,12.40
2023-05-10T03:06:33.655Z,12.33
2023-05-10T03:09:35.221Z,12.46
2023-05-10T03:12:53.781Z,12.33
2023-05-10T03:15:59.863Z,12.34
2023-05-10T03:19:10.784Z,12.17
2023-05-10T03:22:17.623Z,12.22
2023-05-10T03:25:21.466Z,12.17
2023-05-10T03:28:27.382Z,12.18
2023-05-10T03:31:28.847Z,12.14
2023-05-10T03:34:31.473Z,12.14
2023-05-10T03:37:33.407Z,12.23
2023-05-10T03:40:34.687Z,12.11
2023-05-10T03:43:36.066Z,12.11
2023-05-10T03:46:37.556Z,11.95
2023-05-10T03:49:38.820Z,11.95
2023-05-10T03:52:41.484Z,12.04
2023-05-10T03:55:42.769Z,12.02
2023-05-10T03:58:44.152Z,12.01
2023-05-10T04:01:45.469Z,12.09
2023-05-10T04:04:46.756Z,12.24
2023-05-10T04:07:49.666Z,12.05
2023-05-10T04:10:50.956Z,12.27
2023-05-10T04:13:52.397Z,12.19
2023-05-10T04:16:53.697Z,12.29
2023-05-10T04:19:56.418Z,12.35
2023-05-10T04:22:58.725Z,12.56
2023-05-10T04:26:01.184Z,12.72
2023-05-10T04:29:02.725Z,12.70
2023-05-10T04:32:04.540Z,12.93
2023-05-10T04:35:06.715Z,13.17
2023-05-10T04:38:08.741Z,13.30
2023-05-10T04:41:11.413Z,13.60
2023-05-10T04:44:12.907Z,13.95
2023-05-10T04:47:14.268Z,14.10
2023-05-10T04:50:15.912Z,14.45
2023-05-10T04:53:18.049Z,14.39
2023-05-10T04:56:19.658Z,14.88
2023-05-10T04:59:21.099Z,15.05
2023-05-10T05:02:22.434Z,15.47
2023-05-10T05:05:24.062Z,15.71
2023-05-10T05:08:26.385Z,15.78
2023-05-10T05:11:27.653Z,15.92
2023-05-10T05:14:29.123Z,16.22
2023-05-10T05:17:31.464Z,16.12
2023-05-10T05:20:33.587Z,16.01
2023-05-10T05:23:35.632Z,16.34
2023-05-10T05:26:37.138Z,16.52
2023-05-10T05:29:38.543Z,16.66
2023-05-10T05:32:39.938Z,16.71
2023-05-10T05:35:41.547Z,16.86
2023-05-10T05:38:43.780Z,17.17
2023-05-10T05:41:45.036Z,17.15
2023-05-10T05:44:46.446Z,17.09
2023-05-10T05:47:47.857Z,17.26
2023-05-10T05:50:49.419Z,17.48
2023-05-10T05:53:51.792Z,17.66
2023-05-10T05:56:54.749Z,17.73
2023-05-10T05:59:56.285Z,18.23
2023-05-10T06:02:57.787Z,18.30
2023-05-10T06:05:59.217Z,18.22
2023-05-10T06:09:01.283Z,18.44
2023-05-10T06:12:02.640Z,18.22
2023-05-10T06:15:05.254Z,18.75
2023-05-10T06:18:06.747Z,18.92
2023-05-10T06:21:08.490Z,19.18
2023-05-10T06:24:10.465Z,19.65
2023-05-10T06:27:11.901Z,19.88
2023-05-10T06:30:15.478Z,19.64
2023-05-10T06:33:16.800Z,19.77
2023-05-10T06:36:18.140Z,20.16
2023-05-10T06:39:20.122Z,20.02
2023-05-10T06:42:21.511Z,20.05
2023-05-10T06:45:22.857Z,20.31
2023-05-10T06:48:24.254Z,20.75
2023-05-10T06:51:25.698Z,20.95
2023-05-10T06:54:27.642Z,21.23
2023-05-10T06:57:32.015Z,21.00
2023-05-10T07:00:33.983Z,21.20
2023-05-10T07:03:35.521Z,21.18
2023-05-10T07:06:37.094Z,21.39
2023-05-10T07:09:39.023Z,21.08
2023-05-10T07:12:40.560Z,21.14
2023-05-10T07:15:42.593Z,21.49
2023-05-10T07:18:43.939Z,21.71
2023-05-10T07:21:45.575Z,22.16
2023-05-10T07:24:47.763Z,22.18
2023-05-10T07:27:49.100Z,21.84
2023-05-10T07:30:50.661Z,22.52
2023-05-10T07:33:51.993Z,23.00
2023-05-10T07:36:53.540Z,23.07
2023-05-10T07:39:56.327Z,22.72
2023-05-10T07:42:57.724Z,22.48
2023-05-10T07:46:00.132Z,22.71
2023-05-10T07:49:01.677Z,23.13
2023-05-10T07:52:04.264Z,22.93
2023-05-10T07:55:07.821Z,22.91
2023-05-10T07:58:09.115Z,23.45
2023-05-10T08:01:10.457Z,24.21
2023-05-10T08:04:12.309Z,24.17
2023-05-10T08:07:13.673Z,24.27
2023-05-10T08:10:15.874Z,23.99
2023-05-10T08:13:17.235Z,24.29
2023-05-10T08:16:18.629Z,24.16
2023-05-10T08:19:21.684Z,24.13
2023-05-10T08:22:23.010Z,24.04
2023-05-10T08:25:25.246Z,24.47
2023-05-10T08:28:26.700Z,24.67
2023-05-10T08:31:28.059Z,25.12
2023-05-10T08:34:31.388Z,25.10
2023-05-10T08:37:33.457Z,25.27
2023-05-10T08:40:37.906Z,25.42
2023-05-10T08:43:41.886Z,25.81
2023-05-10T08:46:47.309Z,26.00
2023-05-10T08:49:50.043Z,25.97
2023-05-10T08:52:56.301Z,26.04
2023-05-10T08:55:58.392Z,25.99
2023-05-10T08:59:00.142Z,26.12
2023-05-10T09:02:02.822Z,26.05
2023-05-10T09:05:05.534Z,25.76
2023-05-10T09:08:08.930Z,26.08
2023-05-10T09:11:12.282Z,26.31
2023-05-10T09:14:14.144Z,26.02
2023-05-10T09:17:15.527Z,26.07
2023-05-10T09:20:17.907Z,25.58
2023-05-10T09:23:19.204Z,25.78
2023-05-10T09:26:23.921Z,26.63
2023-05-10T09:29:25.399Z,26.77
2023-05-10T09:32:37.256Z,26.54
2023-05-10T09:35:40.499Z,27.06
2023-05-10T09:38:49.035Z,27.15
2023-05-10T09:41:51.312Z,27.27
2023-05-10T09:44:52.599Z,27.09
2023-05-10T09:47:54.142Z,26.99
2023-05-10T09:50:58.790Z,27.20
2023-05-10T09:54:11.354Z,27.27
2023-05-10T09:57:21.867Z,27.21
2023-05-10T10:00:23.611Z,27.43
2023-05-10T10:03:25.014Z,27.07
2023-05-10T10:06:30.386Z,27.91
2023-05-10T10:09:32.489Z,27.32
2023-05-10T10:12:34.566Z,27.69
2023-05-10T10:15:36.167Z,27.79
2023-05-10T10:18:39.008Z,27.95
2023-05-10T10:21:40.769Z,27.96
2023-05-10T10:24:42.352Z,27.75
2023-05-10T10:27:57.014Z,27.81
2023-05-10T10:31:10.820Z,28.43
2023-05-10T10:34:26.084Z,28.16
2023-05-10T10:37:43.803Z,28.24
2023-05-10T10:40:45.282Z,28.52
2023-05-10T10:43:47.399Z,28.35
2023-05-10T10:47:03.193Z,28.19
2023-05-10T10:50:06.623Z,27.91
2023-05-10T10:53:11.828Z,28.00
2023-05-10T10:56:15.510Z,28.29
2023-05-10T10:59:27.799Z,28.04
2023-05-10T11:02:46.143Z,27.60
2023-05-10T11:05:48.545Z,27.71
2023-05-10T11:08:51.041Z,27.29
2023-05-10T11:11:55.438Z,27.54
2023-05-10T11:14:58.662Z,27.92
2023-05-10T11:18:00.848Z,28.05
2023-05-10T11:21:05.367Z,28.61
2023-05-10T11:24:14.936Z,28.18
2023-05-10T11:27:16.507Z,28.65
2023-05-10T11:30:18.798Z,28.59
2023-05-10T11:33:20.797Z,28.90
2023-05-10T11:36:27.191Z,28.69
2023-05-10T11:39:29.801Z,28.07
2023-05-10T11:42:31.223Z,28.32
2023-05-10T11:45:34.144Z,28.74
2023-05-10T11:48:35.762Z,28.64
2023-05-10T11:51:37.596Z,29.12
2023-05-10T11:54:45.479Z,28.85
2023-05-10T11:57:47.082Z,28.08
2023-05-10T12:00:49.981Z,28.41
2023-05-10T12:03:53.286Z,27.88
2023-05-10T12:06:54.934Z,27.84
2023-05-10T12:10:07.238Z,28.17
2023-05-10T12:13:12.706Z,28.03
2023-05-10T12:16:15.966Z,28.34
2023-05-10T12:19:20.426Z,27.92
2023-05-10T12:22:21.912Z,27.47
2023-05-10T12:25:24.562Z,27.44
2023-05-10T12:28:30.488Z,28.24
2023-05-10T12:31:32.604Z,28.00
2023-05-10T12:34:35.220Z,27.95
2023-05-10T12:37:39.315Z,27.78
2023-05-10T12:40:40.728Z,27.29
2023-05-10T12:43:42.610Z,27.27
2023-05-10T12:46:45.127Z,26.96
2023-05-10T12:49:46.451Z,27.09
2023-05-10T12:52:47.869Z,26.62
2023-05-10T12:55:49.313Z,26.86
2023-05-10T12:58:51.313Z,27.02
2023-05-10T13:01:53.310Z,27.02
2023-05-10T13:04:54.764Z,27.08
2023-05-10T13:07:56.201Z,26.83
2023-05-10T13:10:57.647Z,27.13
2023-05-10T13:13:59.652Z,26.69
2023-05-10T13:17:01.742Z,27.08
2023-05-10T13:20:03.987Z,26.95
2023-05-10T13:23:05.448Z,26.99
2023-05-10T13:26:06.899Z,26.36
2023-05-10T13:29:08.588Z,26.86
2023-05-10T13:32:10.741Z,26.90
2023-05-10T13:35:12.249Z,26.68
2023-05-10T13:38:13.987Z,26.77
2023-05-10T13:41:15.376Z,26.57
2023-05-10T13:44:16.789Z,26.79
2023-05-10T13:47:19.113Z,26.75
2023-05-10T13:50:20.984Z,26.70
2023-05-10T13:53:22.306Z,26.87
2023-05-10T13:56:23.731Z,26.94
2023-05-10T13:59:25.019Z,26.50
2023-05-10T14:02:27.954Z,26.09
2023-05-10T14:05:29.604Z,25.79
2023-05-10T14:08:31.382Z,25.78
2023-05-10T14:11:32.651Z,26.04
2023-05-10T14:14:34.051Z,26.24
2023-05-10T14:17:36.018Z,26.37
2023-05-10T14:20:37.555Z,25.89
2023-05-10T14:23:38.938Z,25.38
2023-05-10T14:26:40.220Z,25.74
2023-05-10T14:29:41.642Z,25.98
2023-05-10T14:32:43.647Z,25.48
2023-05-10T14:35:45.801Z,25.35
2023-05-10T14:38:47.070Z,25.14
2023-05-10T14:41:48.547Z,25.19
2023-05-10T14:44:50.014Z,24.92
2023-05-10T14:47:52.011Z,24.87
2023-05-10T14:50:53.452Z,24.70
2023-05-10T14:53:54.721Z,24.84
2023-05-10T14:56:56.155Z,24.48
2023-05-10T14:59:57.586Z,24.46
2023-05-10T15:03:00.255Z,24.46
2023-05-10T15:06:02.068Z,24.54
2023-05-10T15:09:03.937Z,24.52
2023-05-10T15:12:05.412Z,24.21
2023-05-10T15:15:07.783Z,24.12
2023-05-10T15:18:10.403Z,24.17
2023-05-10T15:21:12.552Z,24.19
2023-05-10T15:24:14.098Z,24.32
2023-05-10T15:27:15.519Z,24.36
2023-05-10T15:30:16.988Z,24.46
2023-05-10T15:33:19.009Z,24.44
2023-05-10T15:36:20.500Z,24.69
2023-05-10T15:39:21.982Z,24.63
2023-05-10T15:42:23.385Z,24.70
2023-05-10T15:45:24.905Z,24.84
2023-05-10T15:48:27.020Z,24.74
2023-05-10T15:51:28.351Z,24.89
2023-05-10T15:54:29.843Z,24.92
2023-05-10T15:57:31.297Z,24.83
2023-05-10T16:00:32.686Z,24.68
2023-05-10T16:03:37.472Z,24.68
2023-05-10T16:06:39.284Z,24.30
2023-05-10T16:09:40.670Z,23.83
2023-05-10T16:12:42.159Z,23.90
2023-05-10T16:15:43.696Z,23.86
2023-05-10T16:18:45.832Z,23.73
2023-05-10T16:21:47.514Z,23.22
2023-05-10T16:24:52.782Z,23.13
2023-05-10T16:27:54.223Z,22.90
2023-05-10T16:30:55.720Z,23.04
2023-05-10T16:33:57.753Z,22.84
2023-05-10T16:36:59.244Z,22.51
2023-05-10T16:40:00.683Z,22.51
2023-05-10T16:43:02.226Z,22.45
2023-05-10T16:46:09.889Z,22.24
2023-05-10T16:49:11.904Z,22.14
2023-05-10T16:52:13.369Z,21.92
2023-05-10T16:55:14.907Z,21.83
2023-05-10T16:58:16.547Z,21.72
2023-05-10T17:01:18.345Z,21.74
2023-05-10T17:04:20.802Z,21.60
2023-05-10T17:07:23.588Z,21.57
2023-05-10T17:10:26.855Z,21.54
2023-05-10T17:13:28.500Z,21.51
2023-05-10T17:16:30.323Z,21.25
2023-05-10T17:19:35.778Z,21.31
2023-05-10T17:22:37.268Z,21.08
2023-05-10T17:25:38.583Z,20.99
2023-05-10T17:28:40.071Z,20.99
2023-05-10T17:31:41.855Z,20.94
2023-05-10T17:34:43.919Z,20.89
2023-05-10T17:37:45.587Z,20.83
2023-05-10T17:40:46.903Z,20.78
2023-05-10T17:43:48.362Z,20.76
2023-05-10T17:46:49.641Z,20.66
2023-05-10T17:49:51.922Z,20.61
2023-05-10T17:52:53.558Z,20.55
2023-05-10T17:55:58.111Z,20.44
2023-05-10T17:58:59.515Z,20.40
2023-05-10T18:02:02.162Z,20.34
2023-05-10T18:05:05.043Z,20.32
2023-05-10T18:08:07.000Z,20.24
2023-05-10T18:11:08.864Z,20.20
2023-05-10T18:14:10.366Z,20.18
2023-05-10T18:17:11.719Z,20.13
2023-05-10T18:20:13.832Z,20.05
2023-05-10T18:23:15.356Z,19.94
2023-05-10T18:26:17.413Z,19.80
2023-05-10T18:29:18.877Z,19.74
2023-05-10T18:32:20.172Z,19.61
2023-05-10T18:35:22.282Z,19.56
2023-05-10T18:38:23.948Z,19.50
2023-05-10T18:41:26.102Z,19.43
2023-05-10T18:44:28.355Z,19.41
2023-05-10T18:47:30.265Z,19.31
2023-05-10T18:50:32.534Z,19.20
2023-05-10T18:53:34.199Z,19.04
2023-05-10T18:56:36.153Z,18.99
2023-05-10T18:59:37.686Z,18.97
2023-05-10T19:02:39.730Z,18.99
2023-05-10T19:05:41.890Z,18.92
2023-05-10T19:08:43.320Z,18.88
2023-05-10T19:11:44.763Z,18.90
2023-05-10T19:14:46.215Z,18.89
2023-05-10T19:17:50.472Z,18.79
2023-05-10T19:20:55.626Z,18.80
2023-05-10T19:23:57.236Z,18.67
2023-05-10T19:26:59.433Z,18.49
2023-05-10T19:30:01.471Z,18.40
2023-05-10T19:33:04.344Z,18.27
2023-05-10T19:36:09.180Z,18.17
2023-05-10T19:39:11.403Z,18.05
2023-05-10T19:42:12.684Z,18.00
2023-05-10T19:45:14.987Z,17.93
2023-05-10T19:48:16.426Z,17.89
2023-05-10T19:51:18.555Z,17.89
2023-05-10T19:54:19.865Z,17.86
2023-05-10T20:00:40.804Z,17.57
2023-05-10T20:03:42.225Z,17.54
2023-05-10T20:06:44.341Z,17.50
2023-05-10T20:09:45.796Z,17.48
2023-05-10T20:12:50.415Z,17.40
2023-05-10T20:15:55.602Z,17.30
2023-05-10T20:18:57.038Z,17.25
2023-05-10T20:21:59.298Z,17.18
2023-05-10T20:25:00.850Z,17.14
2023-05-10T20:28:03.078Z,17.08
2023-05-10T20:31:04.611Z,16.97
2023-05-10T20:34:05.926Z,16.89
2023-05-10T20:37:08.042Z,16.78
2023-05-10T20:40:10.258Z,16.76
2023-05-10T20:43:11.712Z,16.68
2023-05-10T20:46:13.319Z,16.53
2023-05-10T20:49:14.656Z,16.49
2023-05-10T20:52:17.033Z,16.44
2023-05-10T20:55:18.400Z,16.35
2023-05-10T20:58:19.884Z,16.31
2023-05-10T21:01:21.414Z,16.23
2023-05-10T21:04:23.760Z,16.10
2023-05-10T21:07:25.872Z,16.05
2023-05-10T21:10:27.884Z,16.00
2023-05-10T21:13:29.263Z,15.94
2023-05-10T21:16:31.409Z,15.90
2023-05-10T21:19:32.799Z,15.85
2023-05-10T21:22:34.912Z,15.79
2023-05-10T21:25:36.861Z,15.72
2023-05-10T21:28:40.192Z,15.78
2023-05-10T21:31:41.753Z,15.82
2023-05-10T21:34:43.150Z,15.79
2023-05-10T21:37:45.297Z,15.74
2023-05-10T21:40:46.638Z,15.72
2023-05-10T21:43:48.130Z,15.69
2023-05-10T21:46:49.595Z,15.69
2023-05-10T21:49:51.161Z,15.64
2023-05-10T21:52:53.264Z,15.61
2023-05-10T21:55:55.510Z,15.63
2023-05-10T21:58:57.352Z,15.63
2023-05-10T22:01:58.796Z,15.63
2023-05-10T22:05:01.042Z,15.63
2023-05-10T22:08:03.206Z,15.62
2023-05-10T22:11:04.589Z,15.66
2023-05-10T22:14:06.090Z,15.71
2023-05-10T22:17:07.656Z,15.69
2023-05-10T22:20:09.452Z,15.71
2023-05-10T22:23:11.682Z,15.73
2023-05-10T22:26:12.985Z,15.66
2023-05-10T22:29:14.398Z,15.68
2023-05-10T22:32:15.840Z,15.72
2023-05-10T22:35:17.074Z,15.70
2023-05-10T22:38:19.299Z,15.61
2023-05-10T22:41:21.618Z,15.67
2023-05-10T22:44:23.043Z,15.63
2023-05-10T22:47:24.518Z,15.63
2023-05-10T22:50:26.439Z,15.57
2023-05-10T22:53:28.515Z,15.59
2023-05-10T22:56:30.619Z,15.56
2023-05-10T22:59:32.192Z,15.52
2023-05-10T23:02:34.277Z,15.38
2023-05-10T23:05:35.676Z,15.37
2023-05-10T23:08:37.791Z,15.33
2023-05-10T23:11:39.074Z,15.26
2023-05-10T23:14:41.043Z,15.26
2023-05-10T23:17:43.032Z,15.19
2023-05-10T23:20:44.598Z,15.17
2023-05-10T23:23:46.991Z,15.07
2023-05-10T23:26:48.239Z,15.02
2023-05-10T23:29:51.689Z,14.96
2023-05-10T23:32:53.124Z,14.93
2023-05-10T23:35:54.534Z,14.97
2023-05-10T23:38:56.664Z,14.94
2023-05-10T23:41:58.055Z,14.89
2023-05-10T23:45:00.003Z,14.77
2023-05-10T23:48:01.343Z,14.70
2023-05-10T23:51:03.232Z,14.68
2023-05-10T23:54:05.676Z,14.67
2023-05-10T23:57:07.088Z,14.59
